Cerritos, California
Current Conditions -  °F | °C
As of 10:53 AM on Saturday 25 Oct 2014 (Local Time) from KFUL Reporting Station
Clear Clear  
Wind Chill: 76°   Ceiling: Unl
Heat Index: 76°   Visibility: 10mi
Dew Point: 58°   Wind: 6mph
Humidity: 54%   Direction: 210°SSW
Pressure: 30.05"   Gusts: NA
Location:  33.87°N, 118.06°W
Report Text: KFUL 251753Z 21005KT 10SM CLR 24/14 A3005 RMK AO2 SLP175 T02440144 10244 20178 51012 $
Loading
Personal Weather Stations






























Interactive Weather Map
Tropical Storm Tracking
New forecast layout! Learn more

10-Day Weather Forecast

Advertisements
Track Severe Weather on mobile